Time;durP1;ratioP1;P1;durP2;ratioP2;P2;SDS_P1;SDS_P2;PMS_P1;PMS_P2;Temp;Humidity;BMP_temperature;BMP_pressure;BME280_temperature;BME280_humidity;BME280_pressure;Samples;Min_cycle;Max_cycle;Signal;HPM_P1;HPM_P2
2021/12/08 00:01:02;;;;;;;3.03;1.80;;;;;;;1.36;100.00;95621.06;5070882;28;20484;-30
2021/12/08 00:03:31;;;;;;;1.93;1.20;;;;;;;1.37;100.00;95618.22;5070870;28;20531;-32
2021/12/08 00:05:59;;;;;;;1.63;1.07;;;;;;;1.29;100.00;95626.31;5070917;28;20837;-32
2021/12/08 00:08:30;;;;;;;1.30;1.20;;;;;;;1.21;100.00;95611.66;5071639;28;20933;-32
2021/12/08 00:13:42;;;;;;;1.10;1.00;;;;;;;1.34;100.00;95636.16;5070940;28;20425;-32
2021/12/08 00:16:12;;;;;;;3.27;1.40;;;;;;;1.33;100.00;95627.50;5070764;28;20447;-32
2021/12/08 00:18:47;;;;;;;1.27;1.17;;;;;;;1.36;100.00;95647.22;5070840;28;20435;-32
2021/12/08 00:21:15;;;;;;;1.20;1.10;;;;;;;1.35;100.00;95640.38;5071006;27;20536;-32
2021/12/08 00:23:43;;;;;;;1.30;1.20;;;;;;;1.34;100.00;95644.00;5070877;27;20450;-32
2021/12/08 00:26:11;;;;;;;1.47;1.37;;;;;;;1.34;100.00;95650.03;5071657;28;20451;-32
2021/12/08 00:28:39;;;;;;;3.13;1.37;;;;;;;1.36;100.00;95647.22;5070156;28;20451;-32
2021/12/08 00:31:07;;;;;;;1.07;1.00;;;;;;;1.36;100.00;95642.00;5070745;28;20444;-32
2021/12/08 00:33:36;;;;;;;1.13;1.03;;;;;;;1.38;100.00;95650.44;5071181;27;20446;-32
2021/12/08 00:36:09;;;;;;;1.17;1.07;;;;;;;1.38;100.00;95650.44;5070775;28;20793;-32
2021/12/08 00:38:36;;;;;;;1.30;1.20;;;;;;;1.42;100.00;95655.03;5070485;27;20815;-31
2021/12/08 00:41:04;;;;;;;3.13;1.50;;;;;;;1.44;100.00;95649.59;5071130;28;20495;-30
2021/12/08 00:43:31;;;;;;;1.20;1.10;;;;;;;1.41;100.00;95642.16;5070274;28;20440;-32
2021/12/08 00:45:58;;;;;;;2.17;1.10;;;;;;;1.41;100.00;95655.25;5070302;28;20931;-32
2021/12/08 00:48:26;;;;;;;1.37;1.27;;;;;;;1.44;100.00;95654.81;5070206;28;20874;-29
2021/12/08 00:50:54;;;;;;;1.87;1.10;;;;;;;1.43;100.00;95663.69;5070307;28;20483;-29
2021/12/08 00:53:23;;;;;;;2.80;1.27;;;;;;;1.49;100.00;95662.88;5070476;28;20450;-33
2021/12/08 00:55:50;;;;;;;1.20;1.10;;;;;;;1.48;100.00;95663.84;5070336;28;20931;-32
2021/12/08 00:58:18;;;;;;;1.40;1.30;;;;;;;1.42;100.00;95659.47;5070511;28;20470;-32
2021/12/08 01:00:49;;;;;;;1.63;1.37;;;;;;;1.48;100.00;95676.13;5069933;28;20508;-31
2021/12/08 01:03:17;;;;;;;1.93;1.40;;;;;;;1.49;100.00;95675.94;5070055;28;20429;-32
2021/12/08 01:05:50;;;;;;;1.63;1.50;;;;;;;1.45;100.00;95690.44;5070370;27;20504;-32
2021/12/08 01:08:18;;;;;;;1.50;1.40;;;;;;;1.46;100.00;95678.97;5070247;27;20432;-31
2021/12/08 01:10:49;;;;;;;1.93;1.47;;;;;;;1.42;100.00;95680.41;5069972;28;20807;-32
2021/12/08 01:13:17;;;;;;;1.23;1.13;;;;;;;1.45;100.00;95682.59;5070360;28;20448;-32
2021/12/08 01:15:47;;;;;;;2.60;1.60;;;;;;;1.44;100.00;95696.66;5070525;28;20452;-32
2021/12/08 01:18:15;;;;;;;1.67;1.57;;;;;;;1.48;100.00;95686.59;5070240;28;20448;-32
2021/12/08 01:20:43;;;;;;;1.67;1.30;;;;;;;1.45;100.00;95698.28;5069799;28;20928;-32
2021/12/08 01:23:11;;;;;;;1.40;1.30;;;;;;;1.50;100.00;95690.63;5069923;27;20444;-32
2021/12/08 01:25:38;;;;;;;1.87;1.50;;;;;;;1.51;100.00;95694.06;5070787;28;20452;-32
2021/12/08 01:28:08;;;;;;;1.83;1.13;;;;;;;1.51;100.00;95689.63;5069881;27;20890;-32
2021/12/08 01:30:35;;;;;;;1.50;1.40;;;;;;;1.52;100.00;95693.84;5069757;28;20436;-31
2021/12/08 01:33:03;;;;;;;2.13;2.03;;;;;;;1.51;100.00;95697.47;5070017;28;20799;-32
2021/12/08 01:35:32;;;;;;;2.30;1.40;;;;;;;1.50;100.00;95706.31;5069844;27;20444;-32
2021/12/08 01:37:59;;;;;;;1.50;1.40;;;;;;;1.56;100.00;95700.25;5070020;27;20525;-31
2021/12/08 01:40:26;;;;;;;1.93;1.83;;;;;;;1.50;100.00;95706.31;5071214;28;20440;-32
2021/12/08 01:42:56;;;;;;;1.63;1.53;;;;;;;1.49;100.00;95706.53;5073464;28;20808;-30
2021/12/08 01:48:14;;;;;;;1.97;1.80;;;;;;;1.45;100.00;95703.53;5073269;28;20778;-30
2021/12/08 01:50:46;;;;;;;1.80;1.70;;;;;;;1.48;100.00;95712.75;5072887;28;20994;-32
2021/12/08 01:53:13;;;;;;;1.83;1.73;;;;;;;1.49;100.00;95709.94;5073039;28;20431;-32
2021/12/08 01:55:42;;;;;;;1.53;1.43;;;;;;;1.51;100.00;95705.31;5073239;28;20444;-32
2021/12/08 01:58:10;;;;;;;1.67;1.20;;;;;;;1.52;100.00;95714.75;5073245;28;20467;-32
2021/12/08 02:00:42;;;;;;;1.60;1.50;;;;;;;1.54;100.00;95722.41;5073245;28;20432;-31
2021/12/08 02:03:10;;;;;;;1.50;1.40;;;;;;;1.51;100.00;95722.84;5073245;28;20879;-32
2021/12/08 02:05:37;;;;;;;2.27;1.50;;;;;;;1.50;100.00;95713.38;5072886;28;20524;-32
2021/12/08 02:08:06;;;;;;;1.63;1.53;;;;;;;1.50;100.00;95716.78;5073204;28;20463;-31
2021/12/08 02:10:34;;;;;;;2.17;1.30;;;;;;;1.46;100.00;95712.97;5073115;28;20950;-32
2021/12/08 02:13:01;;;;;;;2.33;1.87;;;;;;;1.49;100.00;95715.19;5072634;28;20448;-32
2021/12/08 02:15:28;;;;;;;2.37;1.90;;;;;;;1.44;100.00;95720.22;5072973;28;20470;-32
2021/12/08 02:17:58;;;;;;;1.80;1.40;;;;;;;1.46;100.00;95714.78;5072662;28;20451;-30
2021/12/08 02:20:29;;;;;;;2.23;1.50;;;;;;;1.43;100.00;95716.00;5072761;27;20448;-32
2021/12/08 02:22:58;;;;;;;1.50;1.40;;;;;;;1.44;100.00;95725.44;5072871;28;20840;-32
2021/12/08 02:25:27;;;;;;;1.83;1.73;;;;;;;1.41;100.00;95713.56;5072917;28;20450;-32
2021/12/08 02:27:57;;;;;;;1.70;1.60;;;;;;;1.42;100.00;95723.06;5072848;28;20448;-32
2021/12/08 02:30:31;;;;;;;1.90;1.70;;;;;;;1.39;100.00;95735.72;5072606;27;20535;-32
2021/12/08 02:46:52;;;;;;;3.70;2.23;;;;;;;1.41;100.00;95744.16;5072353;28;20504;-32
2021/12/08 02:49:23;;;;;;;2.87;2.57;;;;;;;1.37;100.00;95750.81;5072562;27;20427;-29
2021/12/08 02:51:52;;;;;;;2.70;1.73;;;;;;;1.37;100.00;95740.34;5071626;28;20472;-29
2021/12/08 02:54:22;;;;;;;1.67;1.57;;;;;;;1.40;100.00;95726.88;5072006;28;20440;-29
2021/12/08 02:56:49;;;;;;;2.90;1.87;;;;;;;1.42;100.00;95740.56;5072152;28;20803;-29
2021/12/08 02:59:17;;;;;;;2.17;1.97;;;;;;;1.38;100.00;95740.16;5072253;28;20451;-29
2021/12/08 03:01:44;;;;;;;1.77;1.67;;;;;;;1.38;100.00;95745.38;5072241;28;20817;-29
2021/12/08 03:04:11;;;;;;;4.40;2.27;;;;;;;1.36;100.00;95747.41;5072253;28;20809;-29
2021/12/08 03:06:39;;;;;;;2.00;1.80;;;;;;;1.29;100.00;95733.53;5071850;28;20444;-29
2021/12/08 03:09:08;;;;;;;2.07;1.57;;;;;;;1.49;100.00;95746.56;5071901;28;20939;-29
2021/12/08 03:11:37;;;;;;;1.70;1.60;;;;;;;1.50;100.00;95756.00;5072141;28;20448;-29
2021/12/08 03:14:11;;;;;;;1.70;1.60;;;;;;;1.48;100.00;95744.94;5071932;28;20447;-29
2021/12/08 03:16:41;;;;;;;3.20;1.80;;;;;;;1.46;100.00;95744.34;5072158;28;20434;-29
2021/12/08 03:19:09;;;;;;;3.90;2.50;;;;;;;1.49;100.00;95764.09;5073410;28;20461;-29
2021/12/08 03:21:36;;;;;;;3.87;2.17;;;;;;;1.49;100.00;95754.44;5071660;28;20983;-29
2021/12/08 03:24:17;;;;;;;4.73;2.40;;;;;;;1.46;100.00;95751.41;5071714;27;20440;-30
2021/12/08 03:26:51;;;;;;;3.07;2.20;;;;;;;1.44;100.00;95751.59;5071647;28;20432;-29
2021/12/08 03:29:28;;;;;;;3.83;2.20;;;;;;;1.47;100.00;95759.06;5071547;28;20431;-32
2021/12/08 03:32:04;;;;;;;2.23;2.03;;;;;;;1.51;100.00;95747.19;5071539;27;20442;-32
2021/12/08 03:34:34;;;;;;;3.93;1.70;;;;;;;1.49;100.00;95759.66;5071854;27;20492;-30
2021/12/08 03:37:01;;;;;;;2.10;2.00;;;;;;;1.48;100.00;95765.88;5071727;28;20458;-30
2021/12/08 03:39:29;;;;;;;2.00;1.73;;;;;;;1.47;100.00;95764.28;5071381;28;20444;-32
2021/12/08 03:41:58;;;;;;;1.90;1.80;;;;;;;1.47;100.00;95764.28;5071806;28;20487;-31
2021/12/08 03:44:26;;;;;;;2.83;2.63;;;;;;;1.29;100.00;95741.38;5071438;28;20440;-32
2021/12/08 03:46:59;;;;;;;2.37;2.00;;;;;;;1.45;100.00;95766.31;5071278;28;20443;-31
2021/12/08 03:49:26;;;;;;;4.23;3.07;;;;;;;1.49;100.00;95783.19;5071471;27;20922;-32
2021/12/08 03:51:57;;;;;;;2.67;1.80;;;;;;;1.46;100.00;95777.56;5071107;28;20478;-32
2021/12/08 03:54:24;;;;;;;2.77;2.00;;;;;;;1.48;100.00;95791.25;5071444;28;20428;-32
2021/12/08 03:56:51;;;;;;;3.10;2.60;;;;;;;1.38;100.00;95794.28;5071024;28;20447;-31
2021/12/08 03:59:20;;;;;;;6.63;4.23;;;;;;;1.44;100.00;95790.84;5071541;28;20444;-31
2021/12/08 04:01:47;;;;;;;4.60;3.00;;;;;;;1.46;100.00;95778.34;5070718;28;20451;-31
2021/12/08 04:04:15;;;;;;;2.50;2.30;;;;;;;1.52;100.00;95797.69;5070585;28;20816;-32
2021/12/08 04:06:47;;;;;;;2.87;2.50;;;;;;;1.49;100.00;95793.66;5071148;28;20465;-32
2021/12/08 04:09:24;;;;;;;5.20;3.47;;;;;;;1.53;100.00;95788.84;5071301;28;20436;-32
2021/12/08 04:11:51;;;;;;;2.47;2.27;;;;;;;1.51;100.00;95802.13;5070945;28;20439;-31
2021/12/08 04:14:22;;;;;;;3.13;2.70;;;;;;;1.48;100.00;95799.88;5070835;28;20935;-32
2021/12/08 04:16:56;;;;;;;5.83;2.60;;;;;;;1.50;100.00;95790.03;5070854;28;20427;-32
2021/12/08 04:19:24;;;;;;;3.27;2.87;;;;;;;1.50;100.00;95800.50;5070789;28;20438;-31
2021/12/08 04:21:54;;;;;;;5.63;2.90;;;;;;;1.50;100.00;95803.09;5070978;28;20453;-32
2021/12/08 04:24:21;;;;;;;4.73;4.10;;;;;;;1.51;100.00;95790.84;5070741;27;20942;-32
2021/12/08 04:26:55;;;;;;;3.80;3.20;;;;;;;1.54;100.00;95793.84;5070957;28;20439;-32
2021/12/08 04:29:27;;;;;;;3.30;2.80;;;;;;;1.50;100.00;95795.25;5071072;27;20433;-32
2021/12/08 04:31:57;;;;;;;5.20;4.33;;;;;;;1.55;100.00;95812.97;5070957;28;20424;-32
2021/12/08 04:34:30;;;;;;;5.03;3.90;;;;;;;1.50;100.00;95810.97;5070608;27;20863;-31
2021/12/08 04:37:02;;;;;;;4.37;3.90;;;;;;;1.54;100.00;95813.97;5070612;27;20802;-32
2021/12/08 04:39:45;;;;;;;5.83;3.60;;;;;;;1.34;100.00;95788.66;5070893;27;20433;-32
2021/12/08 04:42:17;;;;;;;6.20;3.87;;;;;;;1.56;100.00;95836.31;5070677;28;20476;-31
2021/12/08 04:44:51;;;;;;;8.87;4.30;;;;;;;1.52;100.00;95829.06;5070729;28;20436;-31
2021/12/08 04:47:32;;;;;;;8.70;4.07;;;;;;;1.53;100.00;95833.31;5070330;28;20433;-32
2021/12/08 04:52:55;;;;;;;6.23;4.27;;;;;;;1.53;100.00;95836.72;5068120;28;20428;-32
2021/12/08 05:06:39;;;;;;;11.10;6.20;;;;;;;1.58;100.00;95855.22;5053742;28;20447;-31
2021/12/08 05:09:09;;;;;;;13.10;8.50;;;;;;;1.61;100.00;95856.63;5068567;27;20483;-30
2021/12/08 05:11:39;;;;;;;11.83;7.27;;;;;;;1.60;100.00;95857.66;5068133;28;20818;-30
2021/12/08 05:14:11;;;;;;;19.60;9.03;;;;;;;1.59;100.00;95862.09;5069524;28;20436;-30
2021/12/08 05:16:42;;;;;;;10.43;7.13;;;;;;;1.60;100.00;95850.59;5071769;28;20428;-32
2021/12/08 05:19:12;;;;;;;7.03;5.77;;;;;;;1.57;100.00;95852.81;5071243;28;20435;-30
2021/12/08 05:21:43;;;;;;;14.60;5.53;;;;;;;1.63;100.00;95867.69;5071903;28;20443;-30
2021/12/08 05:24:14;;;;;;;10.43;5.90;;;;;;;1.63;100.00;95868.53;5071809;28;20486;-29
2021/12/08 05:26:45;;;;;;;6.37;5.10;;;;;;;1.61;100.00;95870.53;5071982;27;20435;-31
2021/12/08 05:29:17;;;;;;;6.20;4.67;;;;;;;1.63;100.00;95868.53;5071697;28;20436;-30
2021/12/08 05:31:47;;;;;;;11.27;6.17;;;;;;;1.68;100.00;95882.78;5071091;28;20444;-30
2021/12/08 05:34:15;;;;;;;14.53;7.63;;;;;;;1.64;100.00;95875.34;5071227;28;20444;-30
2021/12/08 05:36:42;;;;;;;10.20;5.20;;;;;;;1.67;100.00;95889.84;5071317;28;20470;-30
2021/12/08 05:39:13;;;;;;;7.97;5.03;;;;;;;1.71;100.00;95892.88;5071457;28;20465;-30
2021/12/08 05:41:42;;;;;;;14.27;7.47;;;;;;;1.73;100.00;95893.47;5071305;28;20440;-30
2021/12/08 05:44:11;;;;;;;23.90;9.90;;;;;;;1.75;100.00;95887.03;5071049;28;20491;-30
2021/12/08 05:46:42;;;;;;;15.97;6.47;;;;;;;1.75;99.92;95886.22;5071097;28;20447;-30
2021/12/08 05:49:13;;;;;;;17.73;9.50;;;;;;;1.74;100.00;95895.06;5071321;28;20488;-32
2021/12/08 05:51:44;;;;;;;16.83;8.17;;;;;;;1.71;100.00;95895.50;5071094;28;20524;-31
2021/12/08 05:54:15;;;;;;;10.77;7.00;;;;;;;1.70;100.00;95893.88;5071013;28;20436;-32
2021/12/08 05:56:44;;;;;;;17.80;9.80;;;;;;;1.73;100.00;95894.28;5071325;28;20431;-33
2021/12/08 05:59:14;;;;;;;10.83;6.67;;;;;;;1.77;99.59;95899.91;5070583;27;20818;-30
2021/12/08 06:01:46;;;;;;;17.83;8.60;;;;;;;1.78;99.72;95911.97;5071260;28;20781;-30
2021/12/08 06:04:15;;;;;;;14.87;8.50;;;;;;;1.63;99.42;95889.47;5070878;28;20479;-32
2021/12/08 06:06:45;;;;;;;13.30;6.40;;;;;;;1.80;99.87;95921.25;5071097;28;20488;-29
2021/12/08 06:09:13;;;;;;;8.70;5.97;;;;;;;1.79;99.41;95918.84;5070969;27;20452;-32
2021/12/08 06:11:41;;;;;;;10.90;6.90;;;;;;;1.81;99.84;95917.63;5070171;28;20444;-31
2021/12/08 06:14:09;;;;;;;15.27;8.70;;;;;;;1.79;99.94;95930.13;5070858;27;20939;-32
2021/12/08 06:16:40;;;;;;;13.07;7.23;;;;;;;1.80;99.99;95925.69;5070963;28;20440;-32
2021/12/08 06:19:11;;;;;;;13.53;7.90;;;;;;;1.84;99.88;95926.88;5070692;28;20444;-32
2021/12/08 06:21:40;;;;;;;14.17;8.57;;;;;;;1.64;100.00;95900.72;5070625;27;20429;-33
2021/12/08 06:24:10;;;;;;;18.97;7.90;;;;;;;1.84;100.00;95942.59;5070179;28;20560;-32
2021/12/08 06:26:38;;;;;;;28.77;13.90;;;;;;;1.82;100.00;95934.94;5070025;28;20432;-32
2021/12/08 06:29:08;;;;;;;20.20;12.80;;;;;;;1.81;100.00;95924.69;5071219;28;20444;-31
2021/12/08 06:31:37;;;;;;;21.43;11.13;;;;;;;1.82;100.00;95940.16;5072524;28;20923;-31
2021/12/08 06:34:05;;;;;;;27.77;12.63;;;;;;;1.84;100.00;95937.34;5070952;28;20844;-32
2021/12/08 06:36:36;;;;;;;23.23;10.53;;;;;;;1.91;100.00;95948.63;5070426;28;20455;-32
2021/12/08 06:39:07;;;;;;;11.80;7.40;;;;;;;1.93;100.00;95938.75;5070677;28;20437;-32
2021/12/08 06:41:38;;;;;;;21.20;11.13;;;;;;;1.97;100.00;95942.56;5070469;28;20842;-30
2021/12/08 06:44:10;;;;;;;22.80;11.03;;;;;;;1.95;100.00;95941.19;5070311;28;20499;-30
2021/12/08 06:46:38;;;;;;;17.97;9.77;;;;;;;1.97;100.00;95947.03;5069841;27;20450;-30
2021/12/08 06:49:08;;;;;;;16.60;10.30;;;;;;;2.00;100.00;95943.97;5070135;28;20837;-32
2021/12/08 06:51:39;;;;;;;12.93;7.60;;;;;;;1.93;100.00;95930.91;5070020;28;20990;-33
2021/12/08 06:54:12;;;;;;;15.50;11.13;;;;;;;2.04;100.00;95948.63;5070478;27;20438;-31
2021/12/08 06:56:45;;;;;;;15.20;8.20;;;;;;;2.05;100.00;95955.47;5070284;27;20435;-31
2021/12/08 06:59:18;;;;;;;16.17;7.60;;;;;;;2.07;100.00;95951.84;5070351;27;20440;-32
2021/12/08 07:01:56;;;;;;;8.57;6.07;;;;;;;2.10;100.00;95952.22;5069790;27;20432;-32
2021/12/08 07:04:31;;;;;;;16.77;9.43;;;;;;;2.12;99.72;95965.13;5069778;27;20483;-31
2021/12/08 07:07:03;;;;;;;16.57;8.77;;;;;;;2.11;99.53;95963.50;5070008;27;20899;-32
2021/12/08 07:09:37;;;;;;;15.10;9.00;;;;;;;2.11;99.91;95963.50;5069880;27;21136;-31
2021/12/08 07:12:10;;;;;;;27.27;16.57;;;;;;;2.14;100.00;95973.59;5069880;28;20428;-32
2021/12/08 07:14:37;;;;;;;25.23;15.03;;;;;;;2.17;100.00;95967.94;5068030;28;20429;-30
2021/12/08 07:17:10;;;;;;;19.23;10.33;;;;;;;2.18;100.00;95966.94;5065282;28;20488;-31
2021/12/08 07:19:45;;;;;;;52.10;19.13;;;;;;;2.17;100.00;95978.41;5069660;28;20501;-31
2021/12/08 07:22:19;;;;;;;68.10;24.63;;;;;;;2.16;100.00;95988.09;5069693;28;20480;-30
2021/12/08 07:24:50;;;;;;;24.37;12.80;;;;;;;2.15;100.00;95983.88;5069957;27;20518;-30
2021/12/08 07:27:29;;;;;;;74.83;36.33;;;;;;;2.17;100.00;95999.38;5069240;28;20936;-29
2021/12/08 07:29:58;;;;;;;25.10;13.50;;;;;;;2.18;100.00;96001.00;5069544;28;20934;-30
2021/12/08 07:32:29;;;;;;;15.67;8.27;;;;;;;2.17;99.43;96008.06;5070010;27;20444;-31
2021/12/08 07:35:00;;;;;;;22.53;10.93;;;;;;;2.17;99.42;96005.44;5069642;28;20435;-29
2021/12/08 07:37:34;;;;;;;21.03;12.10;;;;;;;2.20;99.21;96010.25;5069532;28;20911;-30
2021/12/08 07:40:08;;;;;;;24.73;10.70;;;;;;;2.18;99.60;96007.03;5069170;27;20428;-30
2021/12/08 07:42:39;;;;;;;27.60;11.43;;;;;;;2.20;99.42;96009.47;5069732;28;20427;-30
2021/12/08 07:45:11;;;;;;;21.87;11.20;;;;;;;2.19;99.26;96007.81;5069295;28;20934;-31
2021/12/08 07:47:39;;;;;;;21.30;10.83;;;;;;;2.20;99.31;96015.50;5069358;28;20433;-30
2021/12/08 07:50:12;;;;;;;17.70;9.73;;;;;;;2.20;99.32;96001.59;5069083;28;20436;-30
2021/12/08 07:52:47;;;;;;;18.77;9.87;;;;;;;2.22;99.07;96007.44;5059038;28;20432;-30
2021/12/08 07:55:20;;;;;;;13.97;7.97;;;;;;;2.23;99.19;96009.03;5049033;28;20429;-30
2021/12/08 07:57:49;;;;;;;15.27;8.23;;;;;;;2.22;99.61;96013.47;5049736;28;20440;-30
2021/12/08 08:00:21;;;;;;;16.77;8.57;;;;;;;2.27;99.49;96025.16;5049118;28;20455;-30
2021/12/08 08:02:49;;;;;;;15.17;9.07;;;;;;;2.29;99.65;96013.47;5049102;28;20977;-30
2021/12/08 08:05:22;;;;;;;38.17;14.87;;;;;;;2.27;100.00;96020.72;5048834;28;20448;-32
2021/12/08 08:07:50;;;;;;;31.87;13.23;;;;;;;2.28;99.21;96016.28;5049261;28;20447;-32
2021/12/08 08:10:19;;;;;;;39.03;16.17;;;;;;;2.29;98.85;96017.91;5048967;28;20933;-30
2021/12/08 08:12:57;;;;;;;23.20;10.87;;;;;;;2.32;98.15;96023.53;5049179;28;20445;-33
2021/12/08 08:15:26;;;;;;;15.27;8.33;;;;;;;2.39;98.07;96028.78;5048880;28;20460;-30
2021/12/08 08:17:55;;;;;;;18.60;9.27;;;;;;;2.41;97.66;96017.09;5048667;28;20476;-30
2021/12/08 08:20:26;;;;;;;14.97;7.67;;;;;;;2.43;97.58;96017.69;5048646;28;20541;-31
2021/12/08 08:22:55;;;;;;;13.00;8.60;;;;;;;2.50;97.46;96016.88;5048498;28;20516;-32
2021/12/08 08:25:26;;;;;;;14.60;8.03;;;;;;;2.50;97.35;96024.75;5049039;28;20495;-32
2021/12/08 08:27:54;;;;;;;20.53;9.73;;;;;;;2.50;96.67;96030.00;5048983;28;20904;-32
2021/12/08 08:30:24;;;;;;;19.63;8.73;;;;;;;2.52;96.63;96022.69;5048893;28;20445;-30
2021/12/08 08:32:54;;;;;;;31.50;13.40;;;;;;;2.53;97.08;96026.94;5048166;28;20433;-30
2021/12/08 08:35:26;;;;;;;17.80;8.57;;;;;;;2.59;97.62;96023.50;5048712;28;20454;-31
2021/12/08 08:37:54;;;;;;;11.67;7.20;;;;;;;2.63;96.93;96027.34;5049050;28;20630;-31
2021/12/08 08:40:33;;;;;;;14.03;9.17;;;;;;;2.67;96.65;96023.31;5048676;28;20449;-30
2021/12/08 08:43:01;;;;;;;23.13;12.83;;;;;;;2.68;96.10;96030.16;5048479;28;20477;-30
2021/12/08 08:45:32;;;;;;;25.53;13.13;;;;;;;2.72;96.56;96027.94;5048302;28;20796;-30
2021/12/08 08:48:04;;;;;;;34.97;19.03;;;;;;;2.66;96.46;96012.00;5048449;28;20433;-30
2021/12/08 08:50:42;;;;;;;12.63;7.93;;;;;;;2.80;95.86;96020.66;5047831;28;20481;-30
2021/12/08 08:53:10;;;;;;;14.10;8.60;;;;;;;2.75;94.92;96028.31;5048354;28;20905;-30
2021/12/08 08:55:42;;;;;;;21.57;7.53;;;;;;;2.79;95.24;96024.25;5048647;28;20440;-29
2021/12/08 08:58:11;;;;;;;15.37;8.33;;;;;;;2.82;95.59;96018.63;5053862;28;20420;-31
2021/12/08 09:00:43;;;;;;;21.83;8.67;;;;;;;2.81;95.18;96016.19;5058374;28;20433;-30
2021/12/08 09:03:13;;;;;;;15.73;9.70;;;;;;;2.80;94.79;96012.78;5060828;28;20436;-30
2021/12/08 09:05:44;;;;;;;16.73;9.00;;;;;;;2.78;95.05;96014.81;5068524;28;20938;-30
2021/12/08 09:08:14;;;;;;;18.77;9.70;;;;;;;2.83;95.53;96014.97;5068240;27;20456;-30
2021/12/08 09:10:52;;;;;;;29.00;12.87;;;;;;;2.89;96.12;96017.81;5068152;28;20448;-29
2021/12/08 09:13:26;;;;;;;18.53;9.20;;;;;;;2.92;95.52;96012.94;5068426;28;20435;-29
2021/12/08 09:15:57;;;;;;;22.30;10.57;;;;;;;2.90;95.38;96008.91;5068128;27;20896;-30
2021/12/08 09:18:29;;;;;;;56.80;19.60;;;;;;;2.95;95.26;96011.75;5067992;28;20432;-29
2021/12/08 09:21:09;;;;;;;39.90;15.20;;;;;;;2.97;95.35;96014.94;5068111;28;20424;-29
2021/12/08 09:23:41;;;;;;;38.87;13.47;;;;;;;2.97;95.18;96014.94;5068254;28;20500;-30
2021/12/08 09:26:13;;;;;;;38.13;14.37;;;;;;;2.96;95.22;96013.34;5068252;28;20424;-31
2021/12/08 09:28:44;;;;;;;71.20;21.20;;;;;;;2.98;95.41;96006.88;5067810;28;20440;-29
2021/12/08 09:31:16;;;;;;;35.90;14.00;;;;;;;2.97;95.40;96012.31;5067931;28;20515;-31
2021/12/08 09:33:50;;;;;;;50.93;18.23;;;;;;;2.96;95.73;96003.63;5067854;28;20427;-30
2021/12/08 09:36:22;;;;;;;39.63;15.40;;;;;;;2.96;95.81;95992.34;5068159;28;20831;-29
2021/12/08 09:38:54;;;;;;;38.63;16.93;;;;;;;2.98;95.67;95995.56;5068046;28;20480;-30
2021/12/08 09:41:28;;;;;;;34.63;15.83;;;;;;;3.02;95.65;95996.78;5067655;28;20436;-29
2021/12/08 09:43:58;;;;;;;34.27;13.17;;;;;;;3.02;95.75;95986.28;5067899;28;20971;-29
2021/12/08 09:46:29;;;;;;;35.20;13.40;;;;;;;3.05;95.01;95985.84;5067578;28;20432;-29
2021/12/08 09:48:56;;;;;;;40.53;17.33;;;;;;;3.08;94.90;95975.75;5067619;28;20435;-30
2021/12/08 09:51:26;;;;;;;17.57;9.70;;;;;;;3.12;94.47;95976.16;5067287;28;21037;-30
2021/12/08 09:53:54;;;;;;;28.40;13.40;;;;;;;3.12;93.88;95976.16;5067481;28;20450;-29
2021/12/08 09:56:25;;;;;;;31.00;15.77;;;;;;;3.17;94.62;95984.19;5067857;28;20444;-29
2021/12/08 09:58:54;;;;;;;21.40;10.47;;;;;;;3.21;94.50;95985.38;5067529;28;20550;-29
2021/12/08 10:01:22;;;;;;;20.33;12.00;;;;;;;3.23;93.88;95972.06;5068859;27;20551;-30
2021/12/08 10:03:52;;;;;;;22.10;12.27;;;;;;;3.19;94.47;95955.13;5071107;27;20487;-29
2021/12/08 10:06:20;;;;;;;19.00;10.70;;;;;;;3.30;93.61;95966.78;5071227;28;20845;-29
2021/12/08 10:08:49;;;;;;;16.80;10.00;;;;;;;3.34;93.96;95965.34;5070753;28;20451;-29
2021/12/08 10:11:17;;;;;;;14.37;7.67;;;;;;;3.42;94.64;95962.47;5070570;27;20450;-29
2021/12/08 10:13:47;;;;;;;15.80;9.50;;;;;;;3.42;94.37;95952.78;5071126;27;20551;-29
2021/12/08 10:16:16;;;;;;;20.03;10.67;;;;;;;3.50;93.38;95964.84;5070709;28;20444;-29
2021/12/08 10:18:44;;;;;;;13.87;8.00;;;;;;;3.54;92.58;95955.53;5070950;28;20443;-29
2021/12/08 10:21:13;;;;;;;21.67;10.37;;;;;;;3.61;92.11;95945.78;5070576;28;20452;-30
2021/12/08 10:23:42;;;;;;;17.60;9.27;;;;;;;3.64;91.78;95953.25;5070432;28;20505;-30
2021/12/08 10:26:12;;;;;;;18.83;8.03;;;;;;;3.58;91.82;95930.47;5070861;27;20516;-30
2021/12/08 10:28:41;;;;;;;20.23;7.90;;;;;;;3.71;90.87;95949.78;5070622;28;20450;-29
2021/12/08 10:31:13;;;;;;;28.40;8.20;;;;;;;3.71;91.09;95947.94;5070854;28;20436;-30
2021/12/08 10:33:51;;;;;;;19.50;10.83;;;;;;;3.73;91.14;95947.72;5070573;27;20428;-30
2021/12/08 10:36:35;;;;;;;16.97;9.50;;;;;;;3.64;91.45;95931.44;5070893;28;20424;-30
2021/12/08 10:39:10;;;;;;;15.60;7.33;;;;;;;3.78;90.76;95958.38;5070239;27;20465;-30
2021/12/08 10:41:47;;;;;;;39.50;17.40;;;;;;;3.73;90.50;95950.34;5070871;27;20439;-30
2021/12/08 10:44:14;;;;;;;15.60;9.30;;;;;;;3.76;90.62;95963.84;5070243;27;21186;-30
2021/12/08 10:46:43;;;;;;;24.03;10.50;;;;;;;3.78;89.69;95953.13;5070099;28;20447;-31
2021/12/08 10:49:19;;;;;;;21.93;9.53;;;;;;;3.81;90.29;95960.59;5070200;28;20946;-31
2021/12/08 10:54:37;;;;;;;39.83;17.50;;;;;;;3.89;90.76;95960.31;5070313;28;20923;-30
2021/12/08 10:57:22;;;;;;;23.47;12.50;;;;;;;3.95;90.91;95964.72;5070428;28;20428;-29
2021/12/08 10:59:56;;;;;;;15.43;10.00;;;;;;;4.03;91.35;95961.81;5070023;28;20432;-30
2021/12/08 11:02:46;;;;;;;16.77;8.33;;;;;;;4.07;90.87;95976.16;5070266;28;20432;-30
2021/12/08 11:05:37;;;;;;;21.33;10.43;;;;;;;4.12;91.09;95953.69;5069618;28;20483;-30
2021/12/08 11:08:15;;;;;;;27.30;13.20;;;;;;;4.14;90.55;95951.63;5070004;28;20916;-31
2021/12/08 11:10:47;;;;;;;35.20;16.37;;;;;;;4.18;90.83;95948.38;5069996;28;20456;-30
2021/12/08 11:13:16;;;;;;;21.03;10.80;;;;;;;4.23;90.88;95955.59;5069623;28;20432;-29
2021/12/08 11:15:48;;;;;;;20.47;9.40;;;;;;;4.25;90.79;95956.19;5070101;27;20479;-30
2021/12/08 11:18:19;;;;;;;16.70;8.70;;;;;;;4.30;89.65;95946.63;5069430;28;20444;-30
2021/12/08 11:20:50;;;;;;;21.03;10.67;;;;;;;4.35;90.01;95947.81;5069763;28;20436;-32
2021/12/08 11:23:38;;;;;;;35.33;15.27;;;;;;;4.36;89.17;95939.69;5070023;28;20468;-32
2021/12/08 11:26:16;;;;;;;15.77;9.70;;;;;;;4.44;89.30;95947.31;5069838;27;20476;-30
2021/12/08 11:28:44;;;;;;;8.90;6.43;;;;;;;4.46;88.71;95952.34;5069952;28;20424;-32
2021/12/08 11:31:13;;;;;;;13.57;7.90;;;;;;;4.51;89.04;95948.03;5069508;28;20447;-30
2021/12/08 11:33:48;;;;;;;9.10;6.83;;;;;;;4.66;90.72;95945.03;5070009;27;20492;-30
2021/12/08 11:36:18;;;;;;;7.70;6.17;;;;;;;4.83;89.73;95945.25;5069967;27;20501;-30
2021/12/08 11:38:46;;;;;;;13.33;8.93;;;;;;;4.98;89.03;95936.19;5069425;28;21191;-31
2021/12/08 11:41:27;;;;;;;18.43;10.40;;;;;;;5.04;87.45;95940.56;5069420;28;20451;-29
2021/12/08 11:43:57;;;;;;;18.40;9.60;;;;;;;5.08;87.54;95941.72;5069270;28;20938;-30
2021/12/08 11:46:26;;;;;;;14.67;8.20;;;;;;;5.09;86.50;95938.06;5069603;27;20442;-31
2021/12/08 11:49:03;;;;;;;13.53;7.77;;;;;;;5.12;87.27;95940.28;5069248;28;20452;-32
2021/12/08 11:51:35;;;;;;;16.13;11.20;;;;;;;5.16;86.95;95948.50;5069125;28;21020;-29
2021/12/08 11:54:03;;;;;;;22.80;11.33;;;;;;;5.18;87.14;95941.19;5069536;27;21110;-29
2021/12/08 11:56:36;;;;;;;16.80;11.17;;;;;;;5.22;86.67;95931.81;5069166;28;20913;-30
2021/12/08 11:59:06;;;;;;;28.70;11.73;;;;;;;5.26;86.21;95939.03;5069519;28;20447;-30
2021/12/08 12:01:34;;;;;;;22.37;10.20;;;;;;;5.23;83.65;95939.50;5069382;28;20444;-31
2021/12/08 12:04:03;;;;;;;38.77;18.17;;;;;;;5.22;84.39;95943.16;5069421;28;20448;-32
2021/12/08 12:06:31;;;;;;;44.20;15.20;;;;;;;5.27;85.03;95943.31;5069277;28;20455;-31
2021/12/08 12:09:00;;;;;;;11.97;6.80;;;;;;;5.28;84.41;95942.25;5068571;28;20440;-31
2021/12/08 12:11:28;;;;;;;18.43;10.60;;;;;;;5.10;84.34;95923.91;5069314;28;20436;-31
2021/12/08 12:13:57;;;;;;;10.23;6.60;;;;;;;5.26;84.74;95943.50;5068917;28;20459;-32
2021/12/08 12:16:25;;;;;;;9.77;6.17;;;;;;;5.33;85.32;95945.03;5069138;28;20822;-32
2021/12/08 12:30:25;;;;;;;46.13;20.67;;;;;;;5.74;83.55;95961.88;5150314;27;20899;-41
2021/12/08 12:32:55;;;;;;;17.27;9.67;;;;;;;5.72;83.09;95958.66;5150158;27;20431;-38